EDT,Max TemperatureF,Mean TemperatureF,Min TemperatureF,Max Dew PointF,MeanDew PointF,Min DewpointF,Max Humidity, Mean Humidity, Min Humidity, Max Sea Level PressureIn, Mean Sea Level PressureIn, Min Sea Level PressureIn, Max VisibilityMiles, Mean VisibilityMiles, Min VisibilityMiles, Max Wind SpeedMPH, Mean Wind SpeedMPH, Max Gust SpeedMPH,PrecipitationIn, CloudCover, Events, WindDirDegrees
2013-6-1,87,77,66,73,68,64,100,78,55,30.06,30.02,29.95,10,10,5,16,5,21,0.02,5,Rain-Thunderstorm,188
2013-6-2,87,77,67,73,70,64,100,76,51,29.99,29.93,29.84,10,9,2,10,3,17,0.17,5,Rain-Thunderstorm,258
2013-6-3,86,76,66,70,67,63,100,74,48,29.97,29.92,29.86,10,8,0,15,3,17,0.05,5,Fog-Rain,350
2013-6-4,88,75,61,67,63,60,93,67,40,30.00,29.97,29.93,10,10,9,9,2,13,0.00,0,,3
2013-6-5,86,77,67,72,68,65,100,85,69,30.02,29.96,29.88,10,9,2,21,4,29,0.28,5,Rain-Thunderstorm,101
2013-6-6,85,77,68,71,69,66,100,79,58,29.92,29.82,29.72,10,10,10,8,1,12,0.00,6,,107
2013-6-7,85,76,67,70,69,66,100,78,55,29.88,29.76,29.69,10,8,0,18,3,26,1.00,5,Fog-Rain-Thunderstorm,292
2013-6-8,84,76,67,70,67,65,100,78,55,30.04,29.95,29.85,10,5,0,10,2,15,0.00,6,Fog,219
2013-6-9,82,74,66,73,70,66,100,85,69,30.10,30.03,29.96,10,7,2,20,3,26,0.21,5,Rain-Thunderstorm,172
2013-6-10,85,75,65,70,68,64,97,74,51,30.03,29.97,29.89,10,9,0,14,4,20,0.89,5,Fog-Rain,203
2013-6-11,92,81,70,75,72,69,100,76,52,30.05,29.99,29.94,10,10,7,14,3,18,0.04,3,Rain,270
2013-6-12,93,82,70,76,73,70,100,75,49,30.05,30.00,29.95,10,8,2,12,3,16,0.00,1,,270
2013-6-13,91,81,70,75,73,70,100,78,56,29.96,29.86,29.73,10,8,1,20,6,30,0.26,2,Rain-Thunderstorm,281
2013-6-14,86,76,65,68,61,56,87,62,37,29.98,29.91,29.85,10,10,10,16,8,21,0.00,0,,356
2013-6-15,87,74,61,66,62,59,100,70,40,30.11,30.05,30.00,10,10,10,12,2,15,0.00,1,,154
2013-6-16,88,76,63,75,68,62,100,78,55,30.12,30.05,29.98,10,8,1,32,3,46,0.80,3,Rain-Thunderstorm,249
2013-6-17,85,77,68,74,71,68,100,87,74,30.06,30.01,29.91,10,8,1,7,2,8,0.37,6,Rain-Thunderstorm,111
2013-6-18,82,76,69,73,71,69,100,87,74,29.95,29.90,29.84,10,7,0,6,4,6,1.33,7,Fog-Rain-Thunderstorm,232
2013-6-19,86,76,66,71,67,65,100,76,51,30.05,29.98,29.91,10,10,10,7,2,13,0.00,1,,342
2013-6-20,86,77,67,69,67,65,100,76,51,30.18,30.12,30.06,10,10,10,10,3,17,0.00,3,,94
2013-6-21,86,77,67,70,67,62,100,74,48,30.23,30.17,30.12,10,9,7,9,2,12,0.00,1,,41
2013-6-22,86,75,63,68,65,61,100,72,44,30.21,30.15,30.07,10,9,6,10,2,14,0.00,1,,93
2013-6-23,85,76,66,71,68,65,100,78,55,30.21,30.12,30.06,10,10,8,12,3,16,0.00,3,,133
2013-6-24,86,77,68,72,70,68,100,81,61,30.23,30.16,30.08,10,10,8,12,2,18,0.00,4,,173
2013-6-25,88,78,68,74,71,68,100,79,57,30.17,30.10,30.01,10,10,9,9,2,22,0.00,3,,221
2013-6-26,88,79,70,75,72,70,100,80,59,30.09,30.00,29.90,10,8,2,12,3,20,0.00,2,Thunderstorm,224
2013-6-27,90,81,72,77,73,68,100,82,64,29.95,29.88,29.79,10,10,6,9,4,33,T,4,Rain-Thunderstorm,259
2013-6-28,92,80,68,77,70,63,100,74,47,29.83,29.75,29.66,10,10,6,16,4,22,0.00,1,,285
2013-6-29,90,79,67,71,65,59,100,69,38,29.72,29.68,29.65,10,10,10,13,2,21,0.00,2,,281
2013-6-30,90,78,65,67,63,54,100,65,29,29.77,29.71,29.68,10,10,10,9,2,14,0.00,2,,254